createdAt,value
2022-12-27T00:01:32.746Z,5.84
2022-12-27T00:03:59.669Z,5.80
2022-12-27T00:06:28.205Z,5.75
2022-12-27T00:08:55.558Z,5.70
2022-12-27T00:11:24.864Z,5.65
2022-12-27T00:13:52.865Z,5.61
2022-12-27T00:16:21.053Z,5.58
2022-12-27T00:18:48.030Z,5.54
2022-12-27T00:21:15.643Z,5.52
2022-12-27T00:23:44.967Z,5.49
2022-12-27T00:26:13.521Z,5.46
2022-12-27T00:28:40.295Z,5.41
2022-12-27T00:31:08.390Z,5.37
2022-12-27T00:33:37.057Z,5.35
2022-12-27T00:36:06.550Z,5.33
2022-12-27T00:38:34.098Z,5.30
2022-12-27T00:41:01.442Z,5.26
2022-12-27T00:43:28.218Z,5.23
2022-12-27T00:45:54.911Z,5.19
2022-12-27T00:48:23.195Z,5.15
2022-12-27T00:50:50.124Z,5.12
2022-12-27T00:53:16.749Z,5.08
2022-12-27T00:55:44.447Z,5.04
2022-12-27T00:58:11.080Z,5.00
2022-12-27T01:00:37.669Z,4.96
2022-12-27T01:03:04.274Z,4.94
2022-12-27T01:05:32.451Z,4.91
2022-12-27T01:07:59.062Z,4.90
2022-12-27T01:10:25.646Z,4.86
2022-12-27T01:12:52.255Z,4.83
2022-12-27T01:15:18.844Z,4.80
2022-12-27T01:17:45.559Z,4.77
2022-12-27T01:20:12.293Z,4.75
2022-12-27T01:22:40.304Z,4.72
2022-12-27T01:25:07.536Z,4.68
2022-12-27T01:27:34.208Z,4.65
2022-12-27T01:30:00.806Z,4.61
2022-12-27T01:32:27.611Z,4.57
2022-12-27T01:34:54.199Z,4.52
2022-12-27T01:37:20.806Z,4.50
2022-12-27T01:39:48.747Z,4.46
2022-12-27T01:42:16.724Z,4.43
2022-12-27T01:44:56.122Z,4.39
2022-12-27T01:47:41.052Z,4.35
2022-12-27T01:50:12.796Z,4.32
2022-12-27T01:52:43.502Z,4.30
2022-12-27T01:55:21.600Z,4.28
2022-12-27T01:57:49.746Z,4.24
2022-12-27T02:00:17.315Z,4.20
2022-12-27T02:02:44.332Z,4.18
2022-12-27T02:05:14.100Z,4.15
2022-12-27T02:07:47.721Z,4.14
2022-12-27T02:10:16.837Z,4.12
2022-12-27T02:12:43.591Z,4.09
2022-12-27T02:15:10.978Z,4.08
2022-12-27T02:17:37.631Z,4.07
2022-12-27T02:20:11.512Z,4.06
2022-12-27T02:23:14.048Z,4.04
2022-12-27T02:26:03.705Z,4.02
2022-12-27T02:28:48.943Z,4.00
2022-12-27T02:31:21.714Z,3.98
2022-12-27T02:33:51.960Z,3.95
2022-12-27T02:36:23.780Z,3.94
2022-12-27T02:38:53.421Z,3.91
2022-12-27T02:41:20.374Z,3.88
2022-12-27T02:43:48.635Z,3.86
2022-12-27T02:46:21.648Z,3.86
2022-12-27T02:48:52.633Z,3.84
2022-12-27T02:51:30.775Z,3.82
2022-12-27T02:54:06.764Z,3.79
2022-12-27T02:56:45.073Z,3.77
2022-12-27T02:59:32.375Z,3.76
2022-12-27T03:02:07.531Z,3.74
2022-12-27T03:05:02.388Z,3.71
2022-12-27T03:07:37.536Z,3.71
2022-12-27T03:10:18.894Z,3.69
2022-12-27T03:12:55.699Z,3.69
2022-12-27T03:15:33.880Z,3.69
2022-12-27T03:18:07.815Z,3.69
2022-12-27T03:20:36.868Z,3.69
2022-12-27T03:23:04.078Z,3.68
2022-12-27T03:25:34.550Z,3.68
2022-12-27T03:28:04.793Z,3.69
2022-12-27T03:30:33.648Z,3.70
2022-12-27T03:33:04.585Z,3.70
2022-12-27T03:35:37.621Z,3.71
2022-12-27T03:38:07.328Z,3.69
2022-12-27T03:40:48.454Z,3.70
2022-12-27T03:43:16.404Z,3.69
2022-12-27T03:45:56.166Z,3.69
2022-12-27T03:48:26.609Z,3.69
2022-12-27T03:50:56.660Z,3.68
2022-12-27T03:53:29.579Z,3.68
2022-12-27T03:55:56.672Z,3.69
2022-12-27T03:58:23.412Z,3.70
2022-12-27T04:00:51.416Z,3.69
2022-12-27T04:03:18.053Z,3.69
2022-12-27T04:05:44.719Z,3.69
2022-12-27T04:08:11.345Z,3.69
2022-12-27T04:10:37.928Z,3.69
2022-12-27T04:13:04.541Z,3.69
2022-12-27T04:15:32.312Z,3.70
2022-12-27T04:18:00.308Z,3.71
2022-12-27T04:20:26.981Z,3.69
2022-12-27T04:22:53.866Z,3.71
2022-12-27T04:25:20.474Z,3.69
2022-12-27T04:27:47.084Z,3.70
2022-12-27T04:30:13.733Z,3.67
2022-12-27T04:32:40.462Z,3.66
2022-12-27T04:35:08.535Z,3.65
2022-12-27T04:37:35.228Z,3.65
2022-12-27T04:40:01.867Z,3.63
2022-12-27T04:42:28.461Z,3.63
2022-12-27T04:44:55.115Z,3.64
2022-12-27T04:47:22.292Z,3.65
2022-12-27T04:49:48.963Z,3.67
2022-12-27T04:52:18.153Z,3.68
2022-12-27T04:54:44.724Z,3.70
2022-12-27T04:57:11.388Z,3.69
2022-12-27T04:59:37.992Z,3.66
2022-12-27T05:02:04.878Z,3.66
2022-12-27T05:04:34.060Z,3.65
2022-12-27T05:07:01.439Z,3.64
2022-12-27T05:09:29.376Z,3.64
2022-12-27T05:11:56.023Z,3.65
2022-12-27T05:14:22.606Z,3.67
2022-12-27T05:16:49.189Z,3.70
2022-12-27T05:19:15.807Z,3.72
2022-12-27T05:21:44.373Z,3.75
2022-12-27T05:24:11.019Z,3.78
2022-12-27T05:26:39.359Z,3.79
2022-12-27T05:29:08.075Z,3.81
2022-12-27T05:31:35.019Z,3.83
2022-12-27T05:34:01.846Z,3.84
2022-12-27T05:36:28.655Z,3.86
2022-12-27T05:38:55.312Z,3.85
2022-12-27T05:41:22.095Z,3.86
2022-12-27T05:43:50.237Z,3.86
2022-12-27T05:46:19.622Z,3.87
2022-12-27T05:48:46.381Z,3.87
2022-12-27T05:51:16.766Z,3.87
2022-12-27T05:53:44.238Z,3.85
2022-12-27T05:56:14.539Z,3.84
2022-12-27T05:58:41.234Z,3.83
2022-12-27T06:01:12.761Z,3.81
2022-12-27T06:03:39.908Z,3.81
2022-12-27T06:06:08.226Z,3.80
2022-12-27T06:08:34.992Z,3.78
2022-12-27T06:11:03.532Z,3.78
2022-12-27T06:13:30.751Z,3.78
2022-12-27T06:15:58.831Z,3.76
2022-12-27T06:18:27.942Z,3.75
2022-12-27T06:20:54.809Z,3.75
2022-12-27T06:23:21.358Z,3.75
2022-12-27T06:25:47.926Z,3.74
2022-12-27T06:28:14.537Z,3.75
2022-12-27T06:30:41.151Z,3.77
2022-12-27T06:33:07.790Z,3.80
2022-12-27T06:35:35.797Z,3.82
2022-12-27T06:38:02.415Z,3.84
2022-12-27T06:40:29.088Z,3.85
2022-12-27T06:42:58.293Z,3.86
2022-12-27T06:45:24.994Z,3.86
2022-12-27T06:47:51.568Z,3.86
2022-12-27T06:50:18.273Z,3.88
2022-12-27T06:52:46.257Z,3.87
2022-12-27T06:55:12.890Z,3.84
2022-12-27T06:57:39.584Z,3.86
2022-12-27T07:00:07.556Z,3.86
2022-12-27T07:02:34.350Z,3.88
2022-12-27T07:05:01.041Z,3.91
2022-12-27T07:07:27.593Z,3.93
2022-12-27T07:09:55.887Z,3.96
2022-12-27T07:12:22.585Z,3.97
2022-12-27T07:14:49.180Z,3.99
2022-12-27T07:17:16.011Z,4.02
2022-12-27T07:19:42.645Z,4.03
2022-12-27T07:22:09.231Z,4.05
2022-12-27T07:24:35.778Z,4.04
2022-12-27T07:27:03.931Z,4.05
2022-12-27T07:29:30.567Z,4.06
2022-12-27T07:31:57.424Z,4.08
2022-12-27T07:34:24.057Z,4.10
2022-12-27T07:36:50.652Z,4.12
2022-12-27T07:39:17.244Z,4.14
2022-12-27T07:41:43.878Z,4.17
2022-12-27T07:44:11.796Z,4.19
2022-12-27T07:46:38.457Z,4.20
2022-12-27T07:49:05.021Z,4.21
2022-12-27T07:51:31.652Z,4.23
2022-12-27T07:53:58.249Z,4.23
2022-12-27T07:56:27.067Z,4.24
2022-12-27T07:58:54.936Z,4.25
2022-12-27T08:01:24.413Z,4.28
2022-12-27T08:03:51.124Z,4.29
2022-12-27T08:06:24.113Z,4.30
2022-12-27T08:08:52.461Z,4.32
2022-12-27T08:11:19.099Z,4.32
2022-12-27T08:13:45.828Z,4.35
2022-12-27T08:16:17.454Z,4.37
2022-12-27T08:18:45.725Z,4.40
2022-12-27T08:21:12.487Z,4.43
2022-12-27T08:23:39.415Z,4.46
2022-12-27T08:26:06.167Z,4.50
2022-12-27T08:28:33.029Z,4.53
2022-12-27T08:31:00.465Z,4.56
2022-12-27T08:33:27.619Z,4.58
2022-12-27T08:35:55.560Z,4.60
2022-12-27T08:38:22.133Z,4.62
2022-12-27T08:40:48.782Z,4.62
2022-12-27T08:43:15.492Z,4.65
2022-12-27T08:45:42.261Z,4.67
2022-12-27T08:48:09.451Z,4.68
2022-12-27T08:50:36.427Z,4.69
2022-12-27T08:53:05.127Z,4.70
2022-12-27T08:55:33.170Z,4.72
2022-12-27T08:58:01.006Z,4.73
2022-12-27T09:00:29.402Z,4.76
2022-12-27T09:02:56.376Z,4.77
2022-12-27T09:05:24.115Z,4.78
2022-12-27T09:07:51.007Z,4.81
2022-12-27T09:10:20.718Z,4.85
2022-12-27T09:12:47.334Z,4.88
2022-12-27T09:15:14.060Z,4.91
2022-12-27T09:17:41.596Z,4.97
2022-12-27T09:20:09.353Z,4.99
2022-12-27T09:22:36.353Z,5.01
2022-12-27T09:25:03.351Z,5.05
2022-12-27T09:27:31.337Z,5.09
2022-12-27T09:29:58.601Z,5.14
2022-12-27T09:32:25.176Z,5.20
2022-12-27T09:34:51.770Z,5.24
2022-12-27T09:37:18.321Z,5.28
2022-12-27T09:39:44.895Z,5.36
2022-12-27T09:42:49.646Z,5.44
2022-12-27T09:45:19.723Z,5.57
2022-12-27T09:47:55.116Z,5.67
2022-12-27T09:50:27.718Z,5.75
2022-12-27T09:53:01.994Z,5.77
2022-12-27T09:55:38.920Z,5.78
2022-12-27T09:58:17.152Z,5.82
2022-12-27T10:00:46.633Z,5.86
2022-12-27T10:03:13.353Z,5.91
2022-12-27T10:05:45.933Z,5.95
2022-12-27T10:08:28.506Z,5.99
2022-12-27T10:11:07.295Z,6.03
2022-12-27T10:13:46.353Z,6.05
2022-12-27T10:16:23.619Z,6.06
2022-12-27T10:19:05.626Z,6.07
2022-12-27T10:21:37.336Z,6.09
2022-12-27T10:24:16.206Z,6.12
2022-12-27T10:26:43.248Z,6.16
2022-12-27T10:29:17.162Z,6.18
2022-12-27T10:31:45.502Z,6.19
2022-12-27T10:34:15.771Z,6.20
2022-12-27T10:36:44.205Z,6.24
2022-12-27T10:39:17.944Z,6.29
2022-12-27T10:41:55.899Z,6.33
2022-12-27T10:44:23.011Z,6.37
2022-12-27T10:46:53.494Z,6.41
2022-12-27T10:49:25.741Z,6.44
2022-12-27T10:51:55.331Z,6.46
2022-12-27T10:54:25.379Z,6.47
2022-12-27T10:56:52.768Z,6.46
2022-12-27T10:59:21.776Z,6.44
2022-12-27T11:02:07.154Z,6.44
2022-12-27T11:04:33.895Z,6.43
2022-12-27T11:07:13.337Z,6.43
2022-12-27T11:09:44.859Z,6.42
2022-12-27T11:12:20.108Z,6.40
2022-12-27T11:14:58.654Z,6.41
2022-12-27T11:17:32.819Z,6.39
2022-12-27T11:20:06.006Z,6.39
2022-12-27T11:22:32.770Z,6.39
2022-12-27T11:25:00.657Z,6.41
2022-12-27T11:27:29.486Z,6.44
2022-12-27T11:29:58.742Z,6.44
2022-12-27T11:32:27.135Z,6.44
2022-12-27T11:34:55.368Z,6.46
2022-12-27T11:37:24.357Z,6.47
2022-12-27T11:39:53.013Z,6.48
2022-12-27T11:42:27.868Z,6.50
2022-12-27T11:45:03.533Z,6.50
2022-12-27T11:47:39.152Z,6.52
2022-12-27T11:50:22.152Z,6.53
2022-12-27T11:53:01.826Z,6.56
2022-12-27T11:55:42.525Z,6.58
2022-12-27T11:58:42.206Z,6.60
2022-12-27T12:01:39.984Z,6.65
2022-12-27T12:04:26.458Z,6.68
2022-12-27T12:07:03.454Z,6.70
2022-12-27T12:09:54.257Z,6.71
2022-12-27T12:12:54.921Z,6.72
2022-12-27T12:15:48.665Z,6.73
2022-12-27T12:18:30.784Z,6.73
2022-12-27T12:21:26.235Z,6.76
2022-12-27T12:24:22.607Z,6.79
2022-12-27T12:27:05.406Z,6.82
2022-12-27T12:29:49.875Z,6.86
2022-12-27T12:32:28.822Z,6.92
2022-12-27T12:35:17.358Z,7.00
2022-12-27T12:38:02.740Z,7.05
2022-12-27T12:40:47.105Z,7.07
2022-12-27T12:43:31.200Z,7.09
2022-12-27T12:46:07.497Z,7.10
2022-12-27T12:49:09.128Z,7.12
2022-12-27T12:51:58.560Z,7.12
2022-12-27T12:54:51.909Z,7.14
2022-12-27T12:57:32.374Z,7.19
2022-12-27T13:00:26.918Z,7.22
2022-12-27T13:03:19.248Z,7.27
2022-12-27T13:05:51.764Z,7.30
2022-12-27T13:08:25.682Z,7.31
2022-12-27T13:11:09.633Z,7.30
2022-12-27T13:13:53.924Z,7.33
2022-12-27T13:16:32.515Z,7.33
2022-12-27T13:19:12.132Z,7.34
2022-12-27T13:21:53.693Z,7.33
2022-12-27T13:24:31.435Z,7.31
2022-12-27T13:27:12.332Z,7.31
2022-12-27T13:29:55.544Z,7.27
2022-12-27T13:32:34.276Z,7.24
2022-12-27T13:35:22.694Z,7.21
2022-12-27T13:37:57.530Z,7.18
2022-12-27T13:41:03.118Z,7.17
2022-12-27T13:43:49.728Z,7.14
2022-12-27T13:46:46.272Z,7.12
2022-12-27T13:49:32.206Z,7.11
2022-12-27T13:52:11.257Z,7.08
2022-12-27T13:54:56.169Z,7.03
2022-12-27T13:57:40.180Z,6.95
2022-12-27T14:00:16.673Z,6.89
2022-12-27T14:03:16.826Z,6.82
2022-12-27T14:06:14.623Z,6.72
2022-12-27T14:09:00.127Z,6.65
2022-12-27T14:11:39.368Z,6.59
2022-12-27T14:14:09.630Z,6.53
2022-12-27T14:16:59.558Z,6.48
2022-12-27T14:20:04.986Z,6.43
2022-12-27T14:22:54.499Z,6.39
2022-12-27T14:25:58.047Z,6.32
2022-12-27T14:29:00.483Z,6.22
2022-12-27T14:32:21.011Z,6.14
2022-12-27T14:35:23.477Z,6.07
2022-12-27T14:38:31.161Z,5.99
2022-12-27T14:41:40.274Z,5.94
2022-12-27T14:44:44.712Z,5.87
2022-12-27T14:47:47.679Z,5.80
2022-12-27T14:50:47.648Z,5.76
2022-12-27T14:53:54.012Z,5.70
2022-12-27T14:56:28.537Z,5.65
2022-12-27T14:59:08.311Z,5.60
2022-12-27T15:01:48.342Z,5.57
2022-12-27T15:04:47.655Z,5.53
2022-12-27T15:07:37.280Z,5.48
2022-12-27T15:10:15.516Z,5.45
2022-12-27T15:12:52.178Z,5.42
2022-12-27T15:15:27.388Z,5.37
2022-12-27T15:18:32.410Z,5.32
2022-12-27T15:21:28.877Z,5.27
2022-12-27T15:24:01.291Z,5.24
2022-12-27T15:26:37.413Z,5.18
2022-12-27T15:29:20.951Z,5.14
2022-12-27T15:32:01.113Z,5.08
2022-12-27T15:35:00.365Z,5.00
2022-12-27T15:38:02.926Z,4.93
2022-12-27T15:41:10.995Z,4.88
2022-12-27T15:43:57.569Z,4.83
2022-12-27T15:46:50.248Z,4.80
2022-12-27T15:49:37.956Z,4.76
2022-12-27T15:52:13.540Z,4.72
2022-12-27T15:55:14.426Z,4.69
2022-12-27T15:58:07.338Z,4.65
2022-12-27T16:00:36.315Z,4.63
2022-12-27T16:03:23.848Z,4.59
2022-12-27T16:05:52.527Z,4.57
2022-12-27T16:08:26.657Z,4.53
2022-12-27T16:10:54.525Z,4.50
2022-12-27T16:13:42.896Z,4.48
2022-12-27T16:16:56.245Z,4.43
2022-12-27T16:20:04.104Z,4.41
2022-12-27T16:22:38.293Z,4.38
2022-12-27T16:25:25.489Z,4.33
2022-12-27T16:28:00.826Z,4.31
2022-12-27T16:30:36.142Z,4.30
2022-12-27T16:33:04.550Z,4.28
2022-12-27T16:35:32.405Z,4.25
2022-12-27T16:37:59.058Z,4.23
2022-12-27T16:40:47.006Z,4.21
2022-12-27T16:43:46.483Z,4.19
2022-12-27T16:46:25.307Z,4.16
2022-12-27T16:49:26.569Z,4.16
2022-12-27T16:52:12.736Z,4.13
2022-12-27T16:54:51.871Z,4.10
2022-12-27T16:57:32.892Z,4.08
2022-12-27T17:00:02.846Z,4.06
2022-12-27T17:02:39.041Z,4.03
2022-12-27T17:05:33.898Z,4.00
2022-12-27T17:08:18.609Z,3.97
2022-12-27T17:11:01.454Z,3.95
2022-12-27T17:13:43.385Z,3.91
2022-12-27T17:16:17.759Z,3.87
2022-12-27T17:18:48.955Z,3.83
2022-12-27T17:21:29.616Z,3.82
2022-12-27T17:23:59.544Z,3.78
2022-12-27T17:26:51.345Z,3.75
2022-12-27T17:29:59.726Z,3.70
2022-12-27T17:32:39.605Z,3.68
2022-12-27T17:35:15.192Z,3.65
2022-12-27T17:37:58.660Z,3.64
2022-12-27T17:40:33.237Z,3.61
2022-12-27T17:43:10.878Z,3.60
2022-12-27T17:45:45.745Z,3.57
2022-12-27T17:48:24.301Z,3.53
2022-12-27T17:50:53.402Z,3.52
2022-12-27T17:53:23.030Z,3.48
2022-12-27T17:56:08.400Z,3.45
2022-12-27T17:58:35.171Z,3.43
2022-12-27T18:01:02.999Z,3.42
2022-12-27T18:03:35.270Z,3.40
2022-12-27T18:06:02.189Z,3.38
2022-12-27T18:08:32.785Z,3.35
2022-12-27T18:11:01.301Z,3.33
2022-12-27T18:13:33.502Z,3.31
2022-12-27T18:16:13.417Z,3.29
2022-12-27T18:18:40.909Z,3.26
2022-12-27T18:21:19.973Z,3.26
2022-12-27T18:23:47.953Z,3.23
2022-12-27T18:26:15.787Z,3.20
2022-12-27T18:28:43.136Z,3.18
2022-12-27T18:31:14.616Z,3.18
2022-12-27T18:33:44.301Z,3.17
2022-12-27T18:36:15.223Z,3.15
2022-12-27T18:38:45.400Z,3.14
2022-12-27T18:41:18.630Z,3.14
2022-12-27T18:43:47.631Z,3.12
2022-12-27T18:46:16.527Z,3.12
2022-12-27T18:48:43.833Z,3.10
2022-12-27T18:51:10.538Z,3.10
2022-12-27T18:53:38.521Z,3.10
2022-12-27T18:56:07.496Z,3.10
2022-12-27T18:58:35.580Z,3.09
2022-12-27T19:01:05.647Z,3.08
2022-12-27T19:03:38.274Z,3.08
2022-12-27T19:06:09.927Z,3.09
2022-12-27T19:08:38.891Z,3.09
2022-12-27T19:11:06.845Z,3.07
2022-12-27T19:13:42.414Z,3.06
2022-12-27T19:16:21.133Z,3.05
2022-12-27T19:18:51.125Z,3.04
2022-12-27T19:21:18.000Z,3.03
2022-12-27T19:23:44.717Z,3.02
2022-12-27T19:26:25.053Z,3.00
2022-12-27T19:29:02.022Z,2.98
2022-12-27T19:31:29.268Z,2.95
2022-12-27T19:33:59.847Z,2.94
2022-12-27T19:36:30.502Z,2.91
2022-12-27T19:38:57.939Z,2.89
2022-12-27T19:41:25.243Z,2.86
2022-12-27T19:43:53.147Z,2.83
2022-12-27T19:46:24.795Z,2.83
2022-12-27T19:49:31.648Z,2.80
2022-12-27T19:51:42.250Z,2.79
2022-12-27T19:54:15.317Z,2.79
2022-12-27T19:56:42.249Z,2.77
2022-12-27T19:59:15.374Z,2.79
2022-12-27T20:01:43.441Z,2.79
2022-12-27T20:04:10.300Z,2.81
2022-12-27T20:06:37.281Z,2.82
2022-12-27T20:09:04.064Z,2.84
2022-12-27T20:11:30.743Z,2.88
2022-12-27T20:13:57.351Z,2.91
2022-12-27T20:16:24.474Z,2.93
2022-12-27T20:18:52.636Z,2.97
2022-12-27T20:21:20.386Z,2.99
2022-12-27T20:23:47.362Z,3.04
2022-12-27T20:26:18.074Z,3.09
2022-12-27T20:28:44.665Z,3.13
2022-12-27T20:31:13.906Z,3.18
2022-12-27T20:33:40.711Z,3.21
2022-12-27T20:36:09.672Z,3.25
2022-12-27T20:38:38.456Z,3.27
2022-12-27T20:41:06.515Z,3.30
2022-12-27T20:43:33.124Z,3.32
2022-12-27T20:46:04.408Z,3.36
2022-12-27T20:48:31.169Z,3.39
2022-12-27T20:50:57.874Z,3.41
2022-12-27T20:53:25.920Z,3.45
2022-12-27T20:55:57.930Z,3.49
2022-12-27T20:58:24.551Z,3.51
2022-12-27T21:00:51.552Z,3.56
2022-12-27T21:03:18.566Z,3.59
2022-12-27T21:05:45.282Z,3.61
2022-12-27T21:08:11.861Z,3.64
2022-12-27T21:10:39.839Z,3.69
2022-12-27T21:13:06.493Z,3.71
2022-12-27T21:15:37.343Z,3.74
2022-12-27T21:18:07.131Z,3.77
2022-12-27T21:20:33.887Z,3.81
2022-12-27T21:23:00.693Z,3.82
2022-12-27T21:25:27.295Z,3.86
2022-12-27T21:27:55.333Z,3.87
2022-12-27T21:30:21.945Z,3.89
2022-12-27T21:32:48.532Z,3.90
2022-12-27T21:35:15.197Z,3.92
2022-12-27T21:37:41.828Z,3.95
2022-12-27T21:40:09.699Z,3.99
2022-12-27T21:42:36.406Z,4.02
2022-12-27T21:45:05.568Z,4.06
2022-12-27T21:47:32.211Z,4.10
2022-12-27T21:49:58.903Z,4.13
2022-12-27T21:52:25.506Z,4.16
2022-12-27T21:54:52.139Z,4.20
2022-12-27T21:57:18.751Z,4.21
2022-12-27T21:59:45.336Z,4.24
2022-12-27T22:02:13.766Z,4.26
2022-12-27T22:04:40.447Z,4.28
2022-12-27T22:07:07.081Z,4.27
2022-12-27T22:09:33.759Z,4.28
2022-12-27T22:12:00.402Z,4.27
2022-12-27T22:14:29.539Z,4.25
2022-12-27T22:16:58.476Z,4.23
2022-12-27T22:19:26.428Z,4.22
2022-12-27T22:21:52.989Z,4.19
2022-12-27T22:24:19.984Z,4.15
2022-12-27T22:26:46.887Z,4.13
2022-12-27T22:29:13.452Z,4.10
2022-12-27T22:31:40.099Z,4.08
2022-12-27T22:34:06.766Z,4.05
2022-12-27T22:36:34.975Z,4.02
2022-12-27T22:39:02.904Z,3.99
2022-12-27T22:41:31.191Z,3.98
2022-12-27T22:44:00.034Z,3.98
2022-12-27T22:46:28.413Z,3.95
2022-12-27T22:48:56.534Z,3.93
2022-12-27T22:51:25.421Z,3.91
2022-12-27T22:53:55.471Z,3.89
2022-12-27T22:56:24.641Z,3.87
2022-12-27T22:58:51.719Z,3.86
2022-12-27T23:01:20.209Z,3.86
2022-12-27T23:03:47.357Z,3.83
2022-12-27T23:06:14.177Z,3.81
2022-12-27T23:08:41.404Z,3.80
2022-12-27T23:11:12.136Z,3.80
2022-12-27T23:13:38.825Z,3.80
2022-12-27T23:16:06.001Z,3.81
2022-12-27T23:18:32.807Z,3.83
2022-12-27T23:21:20.867Z,3.86
2022-12-27T23:23:46.647Z,3.90
2022-12-27T23:26:18.085Z,3.93
2022-12-27T23:28:46.558Z,3.94
2022-12-27T23:31:14.661Z,3.97
2022-12-27T23:33:42.908Z,3.99
2022-12-27T23:36:10.453Z,4.00
2022-12-27T23:38:37.314Z,4.03
2022-12-27T23:41:05.905Z,4.05
2022-12-27T23:43:53.943Z,4.08
2022-12-27T23:46:23.175Z,4.10
2022-12-27T23:48:50.767Z,4.13
2022-12-27T23:51:17.557Z,4.16
2022-12-27T23:53:44.554Z,4.19
2022-12-27T23:56:14.617Z,4.22
2022-12-27T23:58:43.536Z,4.23
